sensor_id;sensor_type;location;lat;lon;timestamp;P1;durP1;ratioP1;P2;durP2;ratioP2
2766;SDS011;1391;46.742;11.636;2023-01-30T00:01:00;5.20;;;3.07;;
2766;SDS011;1391;46.742;11.636;2023-01-30T00:03:30;4.27;;;3.00;;
2766;SDS011;1391;46.742;11.636;2023-01-30T00:05:59;5.37;;;2.97;;
2766;SDS011;1391;46.742;11.636;2023-01-30T00:08:26;7.03;;;2.90;;
2766;SDS011;1391;46.742;11.636;2023-01-30T00:10:54;4.90;;;3.00;;
2766;SDS011;1391;46.742;11.636;2023-01-30T00:13:21;5.43;;;2.63;;
2766;SDS011;1391;46.742;11.636;2023-01-30T00:15:48;4.23;;;3.00;;
2766;SDS011;1391;46.742;11.636;2023-01-30T00:18:16;4.00;;;2.50;;
2766;SDS011;1391;46.742;11.636;2023-01-30T00:20:43;10.07;;;2.80;;
2766;SDS011;1391;46.742;11.636;2023-01-30T00:23:11;4.37;;;2.73;;
2766;SDS011;1391;46.742;11.636;2023-01-30T00:25:39;4.93;;;2.87;;
2766;SDS011;1391;46.742;11.636;2023-01-30T00:28:06;5.77;;;2.97;;
2766;SDS011;1391;46.742;11.636;2023-01-30T00:30:33;4.80;;;2.60;;
2766;SDS011;1391;46.742;11.636;2023-01-30T00:33:00;3.77;;;3.00;;
2766;SDS011;1391;46.742;11.636;2023-01-30T00:35:27;7.27;;;3.13;;
2766;SDS011;1391;46.742;11.636;2023-01-30T00:37:55;2.97;;;2.20;;
2766;SDS011;1391;46.742;11.636;2023-01-30T00:40:24;4.17;;;2.80;;
2766;SDS011;1391;46.742;11.636;2023-01-30T00:42:54;2.73;;;2.20;;
2766;SDS011;1391;46.742;11.636;2023-01-30T00:45:39;7.70;;;2.93;;
2766;SDS011;1391;46.742;11.636;2023-01-30T00:48:26;3.90;;;2.80;;
2766;SDS011;1391;46.742;11.636;2023-01-30T00:50:53;5.30;;;2.93;;
2766;SDS011;1391;46.742;11.636;2023-01-30T00:53:21;8.47;;;3.77;;
2766;SDS011;1391;46.742;11.636;2023-01-30T00:55:50;6.93;;;3.97;;
2766;SDS011;1391;46.742;11.636;2023-01-30T00:58:19;9.97;;;4.03;;
2766;SDS011;1391;46.742;11.636;2023-01-30T01:00:46;8.03;;;4.40;;
2766;SDS011;1391;46.742;11.636;2023-01-30T01:03:14;6.93;;;3.93;;
2766;SDS011;1391;46.742;11.636;2023-01-30T01:05:42;4.77;;;3.33;;
2766;SDS011;1391;46.742;11.636;2023-01-30T01:08:10;5.17;;;3.20;;
2766;SDS011;1391;46.742;11.636;2023-01-30T01:10:37;7.07;;;2.73;;
2766;SDS011;1391;46.742;11.636;2023-01-30T01:13:06;5.43;;;3.20;;
2766;SDS011;1391;46.742;11.636;2023-01-30T01:15:34;7.10;;;2.73;;
2766;SDS011;1391;46.742;11.636;2023-01-30T01:18:02;4.90;;;2.97;;
2766;SDS011;1391;46.742;11.636;2023-01-30T01:20:29;4.47;;;2.87;;
2766;SDS011;1391;46.742;11.636;2023-01-30T01:22:56;3.80;;;2.53;;
2766;SDS011;1391;46.742;11.636;2023-01-30T01:25:24;5.37;;;2.93;;
2766;SDS011;1391;46.742;11.636;2023-01-30T01:27:52;5.33;;;3.40;;
2766;SDS011;1391;46.742;11.636;2023-01-30T01:30:21;6.03;;;3.40;;
2766;SDS011;1391;46.742;11.636;2023-01-30T01:32:49;5.30;;;2.90;;
2766;SDS011;1391;46.742;11.636;2023-01-30T01:35:16;7.23;;;3.00;;
2766;SDS011;1391;46.742;11.636;2023-01-30T01:37:44;6.03;;;3.23;;
2766;SDS011;1391;46.742;11.636;2023-01-30T01:40:14;7.13;;;2.93;;
2766;SDS011;1391;46.742;11.636;2023-01-30T01:43:02;4.87;;;3.17;;
2766;SDS011;1391;46.742;11.636;2023-01-30T01:45:41;4.57;;;2.60;;
2766;SDS011;1391;46.742;11.636;2023-01-30T01:48:11;6.37;;;3.40;;
2766;SDS011;1391;46.742;11.636;2023-01-30T01:50:52;5.53;;;2.80;;
2766;SDS011;1391;46.742;11.636;2023-01-30T01:53:23;5.27;;;2.80;;
2766;SDS011;1391;46.742;11.636;2023-01-30T01:55:56;7.23;;;2.73;;
2766;SDS011;1391;46.742;11.636;2023-01-30T01:58:26;5.63;;;3.40;;
2766;SDS011;1391;46.742;11.636;2023-01-30T02:00:58;8.87;;;3.40;;
2766;SDS011;1391;46.742;11.636;2023-01-30T02:03:27;7.73;;;2.70;;
2766;SDS011;1391;46.742;11.636;2023-01-30T02:05:59;4.67;;;2.80;;
2766;SDS011;1391;46.742;11.636;2023-01-30T02:08:28;5.43;;;2.73;;
2766;SDS011;1391;46.742;11.636;2023-01-30T02:11:02;5.60;;;2.73;;
2766;SDS011;1391;46.742;11.636;2023-01-30T02:13:35;4.70;;;2.73;;
2766;SDS011;1391;46.742;11.636;2023-01-30T02:16:05;5.17;;;2.63;;
2766;SDS011;1391;46.742;11.636;2023-01-30T02:18:34;4.97;;;2.80;;
2766;SDS011;1391;46.742;11.636;2023-01-30T02:24:26;4.70;;;2.43;;
2766;SDS011;1391;46.742;11.636;2023-01-30T02:27:13;4.50;;;2.60;;
2766;SDS011;1391;46.742;11.636;2023-01-30T02:33:36;10.63;;;4.60;;
2766;SDS011;1391;46.742;11.636;2023-01-30T02:36:13;8.50;;;4.50;;
2766;SDS011;1391;46.742;11.636;2023-01-30T02:38:51;7.57;;;3.70;;
2766;SDS011;1391;46.742;11.636;2023-01-30T02:41:28;6.43;;;3.33;;
2766;SDS011;1391;46.742;11.636;2023-01-30T02:44:03;5.40;;;2.90;;
2766;SDS011;1391;46.742;11.636;2023-01-30T02:46:36;7.60;;;3.17;;
2766;SDS011;1391;46.742;11.636;2023-01-30T02:49:10;7.67;;;3.13;;
2766;SDS011;1391;46.742;11.636;2023-01-30T02:51:42;8.50;;;2.83;;
2766;SDS011;1391;46.742;11.636;2023-01-30T02:54:11;6.10;;;3.03;;
2766;SDS011;1391;46.742;11.636;2023-01-30T02:56:42;3.60;;;2.77;;
2766;SDS011;1391;46.742;11.636;2023-01-30T02:59:12;6.73;;;3.30;;
2766;SDS011;1391;46.742;11.636;2023-01-30T03:01:54;4.40;;;3.00;;
2766;SDS011;1391;46.742;11.636;2023-01-30T03:04:47;4.20;;;2.80;;
2766;SDS011;1391;46.742;11.636;2023-01-30T03:07:32;5.33;;;2.87;;
2766;SDS011;1391;46.742;11.636;2023-01-30T03:10:12;4.20;;;2.77;;
2766;SDS011;1391;46.742;11.636;2023-01-30T03:12:51;4.33;;;3.10;;
2766;SDS011;1391;46.742;11.636;2023-01-30T03:15:24;4.70;;;2.77;;
2766;SDS011;1391;46.742;11.636;2023-01-30T03:18:00;3.83;;;2.67;;
2766;SDS011;1391;46.742;11.636;2023-01-30T03:20:28;6.00;;;2.80;;
2766;SDS011;1391;46.742;11.636;2023-01-30T03:22:56;7.40;;;2.67;;
2766;SDS011;1391;46.742;11.636;2023-01-30T03:25:24;5.67;;;2.83;;
2766;SDS011;1391;46.742;11.636;2023-01-30T03:27:52;3.60;;;2.70;;
2766;SDS011;1391;46.742;11.636;2023-01-30T03:30:20;5.60;;;2.80;;
2766;SDS011;1391;46.742;11.636;2023-01-30T03:32:50;5.23;;;2.87;;
2766;SDS011;1391;46.742;11.636;2023-01-30T03:35:19;5.97;;;3.00;;
2766;SDS011;1391;46.742;11.636;2023-01-30T03:37:46;4.77;;;2.70;;
2766;SDS011;1391;46.742;11.636;2023-01-30T03:40:14;3.63;;;2.53;;
2766;SDS011;1391;46.742;11.636;2023-01-30T03:42:42;5.67;;;3.17;;
2766;SDS011;1391;46.742;11.636;2023-01-30T03:45:10;8.30;;;4.10;;
2766;SDS011;1391;46.742;11.636;2023-01-30T03:47:38;5.40;;;3.07;;
2766;SDS011;1391;46.742;11.636;2023-01-30T03:50:05;3.50;;;2.60;;
2766;SDS011;1391;46.742;11.636;2023-01-30T03:52:36;8.93;;;2.93;;
2766;SDS011;1391;46.742;11.636;2023-01-30T03:55:03;7.63;;;2.90;;
2766;SDS011;1391;46.742;11.636;2023-01-30T03:57:32;3.77;;;2.47;;
2766;SDS011;1391;46.742;11.636;2023-01-30T03:59:59;5.50;;;2.60;;
2766;SDS011;1391;46.742;11.636;2023-01-30T04:02:26;3.63;;;2.60;;
2766;SDS011;1391;46.742;11.636;2023-01-30T04:04:53;3.70;;;2.63;;
2766;SDS011;1391;46.742;11.636;2023-01-30T04:07:21;5.63;;;2.60;;
2766;SDS011;1391;46.742;11.636;2023-01-30T04:09:49;7.20;;;3.00;;
2766;SDS011;1391;46.742;11.636;2023-01-30T04:12:16;5.20;;;2.83;;
2766;SDS011;1391;46.742;11.636;2023-01-30T04:14:44;5.00;;;2.80;;
2766;SDS011;1391;46.742;11.636;2023-01-30T04:17:11;4.80;;;2.70;;
2766;SDS011;1391;46.742;11.636;2023-01-30T04:19:38;4.47;;;3.10;;
2766;SDS011;1391;46.742;11.636;2023-01-30T04:22:05;4.30;;;3.20;;
2766;SDS011;1391;46.742;11.636;2023-01-30T04:24:33;5.33;;;3.13;;
2766;SDS011;1391;46.742;11.636;2023-01-30T04:27:01;4.63;;;3.03;;
2766;SDS011;1391;46.742;11.636;2023-01-30T04:29:29;7.30;;;3.07;;
2766;SDS011;1391;46.742;11.636;2023-01-30T04:31:56;6.50;;;3.10;;
2766;SDS011;1391;46.742;11.636;2023-01-30T04:34:23;6.47;;;3.37;;
2766;SDS011;1391;46.742;11.636;2023-01-30T04:36:51;6.10;;;2.80;;
2766;SDS011;1391;46.742;11.636;2023-01-30T04:39:18;4.70;;;2.70;;
2766;SDS011;1391;46.742;11.636;2023-01-30T04:41:45;5.10;;;3.53;;
2766;SDS011;1391;46.742;11.636;2023-01-30T04:44:14;5.73;;;3.30;;
2766;SDS011;1391;46.742;11.636;2023-01-30T04:46:41;4.47;;;2.50;;
2766;SDS011;1391;46.742;11.636;2023-01-30T04:49:09;5.10;;;2.87;;
2766;SDS011;1391;46.742;11.636;2023-01-30T04:51:36;6.50;;;2.93;;
2766;SDS011;1391;46.742;11.636;2023-01-30T04:54:04;4.13;;;2.43;;
2766;SDS011;1391;46.742;11.636;2023-01-30T04:56:31;5.07;;;2.73;;
2766;SDS011;1391;46.742;11.636;2023-01-30T04:59:01;3.57;;;2.63;;
2766;SDS011;1391;46.742;11.636;2023-01-30T05:01:30;5.53;;;3.10;;
2766;SDS011;1391;46.742;11.636;2023-01-30T05:04:03;4.63;;;2.90;;
2766;SDS011;1391;46.742;11.636;2023-01-30T05:06:32;5.53;;;2.20;;
2766;SDS011;1391;46.742;11.636;2023-01-30T05:09:00;3.37;;;2.57;;
2766;SDS011;1391;46.742;11.636;2023-01-30T05:11:29;5.63;;;2.43;;
2766;SDS011;1391;46.742;11.636;2023-01-30T05:13:57;5.93;;;2.67;;
2766;SDS011;1391;46.742;11.636;2023-01-30T05:16:24;4.17;;;2.50;;
2766;SDS011;1391;46.742;11.636;2023-01-30T05:18:54;6.23;;;2.10;;
2766;SDS011;1391;46.742;11.636;2023-01-30T05:21:22;5.83;;;3.30;;
2766;SDS011;1391;46.742;11.636;2023-01-30T05:23:52;5.47;;;3.20;;
2766;SDS011;1391;46.742;11.636;2023-01-30T05:26:20;11.10;;;5.07;;
2766;SDS011;1391;46.742;11.636;2023-01-30T05:28:51;6.93;;;4.07;;
2766;SDS011;1391;46.742;11.636;2023-01-30T05:31:19;9.70;;;4.20;;
2766;SDS011;1391;46.742;11.636;2023-01-30T05:33:47;8.53;;;4.53;;
2766;SDS011;1391;46.742;11.636;2023-01-30T05:36:18;10.30;;;5.43;;
2766;SDS011;1391;46.742;11.636;2023-01-30T05:38:47;7.87;;;4.43;;
2766;SDS011;1391;46.742;11.636;2023-01-30T05:41:15;5.63;;;3.40;;
2766;SDS011;1391;46.742;11.636;2023-01-30T05:43:43;5.23;;;3.77;;
2766;SDS011;1391;46.742;11.636;2023-01-30T05:46:14;5.03;;;3.43;;
2766;SDS011;1391;46.742;11.636;2023-01-30T05:48:41;9.07;;;4.30;;
2766;SDS011;1391;46.742;11.636;2023-01-30T05:51:15;5.83;;;3.97;;
2766;SDS011;1391;46.742;11.636;2023-01-30T05:53:46;4.97;;;3.07;;
2766;SDS011;1391;46.742;11.636;2023-01-30T05:56:14;5.77;;;3.47;;
2766;SDS011;1391;46.742;11.636;2023-01-30T05:58:43;6.00;;;3.77;;
2766;SDS011;1391;46.742;11.636;2023-01-30T06:01:15;6.67;;;3.93;;
2766;SDS011;1391;46.742;11.636;2023-01-30T06:03:43;7.63;;;4.10;;
2766;SDS011;1391;46.742;11.636;2023-01-30T06:06:10;10.07;;;5.47;;
2766;SDS011;1391;46.742;11.636;2023-01-30T06:08:40;8.97;;;3.70;;
2766;SDS011;1391;46.742;11.636;2023-01-30T06:11:08;10.60;;;5.73;;
2766;SDS011;1391;46.742;11.636;2023-01-30T06:13:37;8.27;;;4.70;;
2766;SDS011;1391;46.742;11.636;2023-01-30T06:16:06;14.37;;;4.80;;
2766;SDS011;1391;46.742;11.636;2023-01-30T06:18:36;11.27;;;4.70;;
2766;SDS011;1391;46.742;11.636;2023-01-30T06:21:03;11.53;;;5.03;;
2766;SDS011;1391;46.742;11.636;2023-01-30T06:23:31;10.77;;;5.87;;
2766;SDS011;1391;46.742;11.636;2023-01-30T06:26:00;13.80;;;6.40;;
2766;SDS011;1391;46.742;11.636;2023-01-30T06:28:28;12.87;;;6.63;;
2766;SDS011;1391;46.742;11.636;2023-01-30T06:30:55;14.60;;;6.80;;
2766;SDS011;1391;46.742;11.636;2023-01-30T06:33:23;13.10;;;5.67;;
2766;SDS011;1391;46.742;11.636;2023-01-30T06:35:50;17.97;;;6.83;;
2766;SDS011;1391;46.742;11.636;2023-01-30T06:38:19;18.73;;;9.07;;
2766;SDS011;1391;46.742;11.636;2023-01-30T06:40:49;12.30;;;6.53;;
2766;SDS011;1391;46.742;11.636;2023-01-30T06:43:18;13.63;;;6.27;;
2766;SDS011;1391;46.742;11.636;2023-01-30T06:45:45;9.40;;;5.27;;
2766;SDS011;1391;46.742;11.636;2023-01-30T06:48:12;10.60;;;6.03;;
2766;SDS011;1391;46.742;11.636;2023-01-30T06:50:39;17.03;;;5.80;;
2766;SDS011;1391;46.742;11.636;2023-01-30T06:53:07;10.03;;;5.87;;
2766;SDS011;1391;46.742;11.636;2023-01-30T06:55:35;8.77;;;5.40;;
2766;SDS011;1391;46.742;11.636;2023-01-30T06:58:04;8.07;;;4.00;;
2766;SDS011;1391;46.742;11.636;2023-01-30T07:00:35;10.27;;;4.50;;
2766;SDS011;1391;46.742;11.636;2023-01-30T07:03:04;9.20;;;4.10;;
2766;SDS011;1391;46.742;11.636;2023-01-30T07:05:33;9.50;;;4.00;;
2766;SDS011;1391;46.742;11.636;2023-01-30T07:08:02;13.73;;;7.97;;
2766;SDS011;1391;46.742;11.636;2023-01-30T07:10:30;12.50;;;5.73;;
2766;SDS011;1391;46.742;11.636;2023-01-30T07:12:57;24.17;;;11.07;;
2766;SDS011;1391;46.742;11.636;2023-01-30T07:15:24;17.93;;;7.70;;
2766;SDS011;1391;46.742;11.636;2023-01-30T07:17:53;11.00;;;5.33;;
2766;SDS011;1391;46.742;11.636;2023-01-30T07:20:21;10.67;;;4.83;;
2766;SDS011;1391;46.742;11.636;2023-01-30T07:22:49;8.60;;;4.70;;
2766;SDS011;1391;46.742;11.636;2023-01-30T07:25:16;11.60;;;4.57;;
2766;SDS011;1391;46.742;11.636;2023-01-30T07:27:48;13.17;;;4.00;;
2766;SDS011;1391;46.742;11.636;2023-01-30T07:30:17;14.07;;;4.93;;
2766;SDS011;1391;46.742;11.636;2023-01-30T07:32:48;12.90;;;4.70;;
2766;SDS011;1391;46.742;11.636;2023-01-30T07:35:17;9.53;;;4.10;;
2766;SDS011;1391;46.742;11.636;2023-01-30T07:37:45;10.57;;;4.73;;
2766;SDS011;1391;46.742;11.636;2023-01-30T07:40:12;10.07;;;5.00;;
2766;SDS011;1391;46.742;11.636;2023-01-30T07:42:40;9.10;;;5.43;;
2766;SDS011;1391;46.742;11.636;2023-01-30T07:45:08;16.30;;;4.83;;
2766;SDS011;1391;46.742;11.636;2023-01-30T07:47:36;16.23;;;6.57;;
2766;SDS011;1391;46.742;11.636;2023-01-30T07:50:04;15.50;;;4.93;;
2766;SDS011;1391;46.742;11.636;2023-01-30T07:52:34;15.87;;;4.63;;
2766;SDS011;1391;46.742;11.636;2023-01-30T07:55:01;12.93;;;4.73;;
2766;SDS011;1391;46.742;11.636;2023-01-30T07:57:29;15.93;;;4.50;;
2766;SDS011;1391;46.742;11.636;2023-01-30T07:59:57;8.47;;;4.17;;
2766;SDS011;1391;46.742;11.636;2023-01-30T08:02:24;14.63;;;4.50;;
2766;SDS011;1391;46.742;11.636;2023-01-30T08:04:51;8.00;;;3.70;;
2766;SDS011;1391;46.742;11.636;2023-01-30T08:07:19;7.87;;;3.83;;
2766;SDS011;1391;46.742;11.636;2023-01-30T08:09:48;9.53;;;4.00;;
2766;SDS011;1391;46.742;11.636;2023-01-30T08:12:16;7.20;;;3.57;;
2766;SDS011;1391;46.742;11.636;2023-01-30T08:14:43;9.83;;;4.03;;
2766;SDS011;1391;46.742;11.636;2023-01-30T08:17:11;8.83;;;3.80;;
2766;SDS011;1391;46.742;11.636;2023-01-30T08:19:38;8.83;;;3.90;;
2766;SDS011;1391;46.742;11.636;2023-01-30T08:22:05;5.10;;;3.67;;
2766;SDS011;1391;46.742;11.636;2023-01-30T08:24:32;13.70;;;4.13;;
2766;SDS011;1391;46.742;11.636;2023-01-30T08:27:02;16.70;;;4.63;;
2766;SDS011;1391;46.742;11.636;2023-01-30T08:29:29;18.60;;;7.10;;
2766;SDS011;1391;46.742;11.636;2023-01-30T08:31:56;15.23;;;6.47;;
2766;SDS011;1391;46.742;11.636;2023-01-30T08:34:24;11.10;;;6.17;;
2766;SDS011;1391;46.742;11.636;2023-01-30T08:36:52;20.93;;;6.67;;
2766;SDS011;1391;46.742;11.636;2023-01-30T08:39:19;20.73;;;6.63;;
2766;SDS011;1391;46.742;11.636;2023-01-30T08:41:46;17.67;;;6.07;;
2766;SDS011;1391;46.742;11.636;2023-01-30T08:44:15;33.93;;;11.47;;
2766;SDS011;1391;46.742;11.636;2023-01-30T08:46:42;24.40;;;9.53;;
2766;SDS011;1391;46.742;11.636;2023-01-30T08:49:09;22.17;;;8.17;;
2766;SDS011;1391;46.742;11.636;2023-01-30T08:51:37;24.87;;;8.43;;
2766;SDS011;1391;46.742;11.636;2023-01-30T08:54:04;18.27;;;8.93;;
2766;SDS011;1391;46.742;11.636;2023-01-30T08:56:33;24.00;;;9.07;;
2766;SDS011;1391;46.742;11.636;2023-01-30T08:59:00;18.60;;;8.13;;
2766;SDS011;1391;46.742;11.636;2023-01-30T09:01:28;24.70;;;9.90;;
2766;SDS011;1391;46.742;11.636;2023-01-30T09:03:56;17.50;;;8.17;;
2766;SDS011;1391;46.742;11.636;2023-01-30T09:06:23;23.10;;;8.50;;
2766;SDS011;1391;46.742;11.636;2023-01-30T09:08:50;13.70;;;5.87;;
2766;SDS011;1391;46.742;11.636;2023-01-30T09:11:17;10.93;;;5.20;;
2766;SDS011;1391;46.742;11.636;2023-01-30T09:13:45;12.83;;;4.60;;
2766;SDS011;1391;46.742;11.636;2023-01-30T09:16:12;9.37;;;4.30;;
2766;SDS011;1391;46.742;11.636;2023-01-30T09:18:41;14.13;;;4.30;;
2766;SDS011;1391;46.742;11.636;2023-01-30T09:21:10;10.37;;;5.00;;
2766;SDS011;1391;46.742;11.636;2023-01-30T09:23:38;14.17;;;4.67;;
2766;SDS011;1391;46.742;11.636;2023-01-30T09:26:06;8.57;;;3.97;;
2766;SDS011;1391;46.742;11.636;2023-01-30T09:28:33;7.33;;;3.50;;
2766;SDS011;1391;46.742;11.636;2023-01-30T09:31:01;10.03;;;3.53;;
2766;SDS011;1391;46.742;11.636;2023-01-30T09:33:28;10.37;;;3.80;;
2766;SDS011;1391;46.742;11.636;2023-01-30T09:35:57;6.20;;;3.53;;
2766;SDS011;1391;46.742;11.636;2023-01-30T09:38:24;8.37;;;3.93;;
2766;SDS011;1391;46.742;11.636;2023-01-30T09:40:59;11.17;;;4.00;;
2766;SDS011;1391;46.742;11.636;2023-01-30T09:44:13;12.10;;;3.67;;
2766;SDS011;1391;46.742;11.636;2023-01-30T09:47:07;12.37;;;4.20;;
2766;SDS011;1391;46.742;11.636;2023-01-30T09:49:38;13.10;;;5.00;;
2766;SDS011;1391;46.742;11.636;2023-01-30T09:52:21;13.87;;;3.87;;
2766;SDS011;1391;46.742;11.636;2023-01-30T09:54:58;12.63;;;3.30;;
2766;SDS011;1391;46.742;11.636;2023-01-30T09:57:36;10.63;;;3.40;;
2766;SDS011;1391;46.742;11.636;2023-01-30T10:00:04;10.80;;;3.43;;
2766;SDS011;1391;46.742;11.636;2023-01-30T10:02:43;7.47;;;3.20;;
2766;SDS011;1391;46.742;11.636;2023-01-30T10:05:17;8.27;;;3.30;;
2766;SDS011;1391;46.742;11.636;2023-01-30T10:10:47;9.00;;;4.10;;
2766;SDS011;1391;46.742;11.636;2023-01-30T10:13:24;7.90;;;3.63;;
2766;SDS011;1391;46.742;11.636;2023-01-30T10:16:06;6.60;;;3.43;;
2766;SDS011;1391;46.742;11.636;2023-01-30T10:18:51;7.97;;;3.30;;
2766;SDS011;1391;46.742;11.636;2023-01-30T10:21:31;5.43;;;3.00;;
2766;SDS011;1391;46.742;11.636;2023-01-30T10:24:26;7.00;;;3.10;;
2766;SDS011;1391;46.742;11.636;2023-01-30T10:27:06;8.13;;;3.37;;
2766;SDS011;1391;46.742;11.636;2023-01-30T10:29:40;5.87;;;3.10;;
2766;SDS011;1391;46.742;11.636;2023-01-30T10:32:12;6.67;;;3.07;;
2766;SDS011;1391;46.742;11.636;2023-01-30T10:34:45;8.00;;;4.10;;
2766;SDS011;1391;46.742;11.636;2023-01-30T10:37:17;7.80;;;3.63;;
2766;SDS011;1391;46.742;11.636;2023-01-30T10:39:58;7.73;;;4.20;;
2766;SDS011;1391;46.742;11.636;2023-01-30T10:42:30;7.20;;;3.67;;
2766;SDS011;1391;46.742;11.636;2023-01-30T10:45:09;4.97;;;2.37;;
2766;SDS011;1391;46.742;11.636;2023-01-30T10:47:46;3.00;;;1.90;;
2766;SDS011;1391;46.742;11.636;2023-01-30T10:50:26;4.90;;;2.40;;
2766;SDS011;1391;46.742;11.636;2023-01-30T10:53:14;4.83;;;2.53;;
2766;SDS011;1391;46.742;11.636;2023-01-30T10:55:50;5.00;;;2.40;;
2766;SDS011;1391;46.742;11.636;2023-01-30T10:58:26;3.00;;;1.90;;
2766;SDS011;1391;46.742;11.636;2023-01-30T11:00:59;5.70;;;2.03;;
2766;SDS011;1391;46.742;11.636;2023-01-30T11:03:33;5.33;;;1.90;;
2766;SDS011;1391;46.742;11.636;2023-01-30T11:06:05;3.47;;;1.70;;
2766;SDS011;1391;46.742;11.636;2023-01-30T11:08:37;1.93;;;1.80;;
2766;SDS011;1391;46.742;11.636;2023-01-30T11:14:04;3.60;;;2.07;;
2766;SDS011;1391;46.742;11.636;2023-01-30T11:16:39;3.97;;;2.00;;
2766;SDS011;1391;46.742;11.636;2023-01-30T11:19:10;3.50;;;1.97;;
2766;SDS011;1391;46.742;11.636;2023-01-30T11:21:38;3.27;;;2.03;;
2766;SDS011;1391;46.742;11.636;2023-01-30T11:24:12;3.27;;;2.63;;
2766;SDS011;1391;46.742;11.636;2023-01-30T11:26:42;9.57;;;2.23;;
2766;SDS011;1391;46.742;11.636;2023-01-30T11:29:15;2.53;;;1.80;;
2766;SDS011;1391;46.742;11.636;2023-01-30T11:31:52;5.87;;;2.13;;
2766;SDS011;1391;46.742;11.636;2023-01-30T11:34:21;5.47;;;3.03;;
2766;SDS011;1391;46.742;11.636;2023-01-30T11:36:49;4.23;;;2.40;;
2766;SDS011;1391;46.742;11.636;2023-01-30T11:39:21;3.80;;;2.10;;
2766;SDS011;1391;46.742;11.636;2023-01-30T11:41:56;2.53;;;1.80;;
2766;SDS011;1391;46.742;11.636;2023-01-30T11:44:31;6.67;;;2.70;;
2766;SDS011;1391;46.742;11.636;2023-01-30T11:47:00;5.17;;;2.63;;
2766;SDS011;1391;46.742;11.636;2023-01-30T11:49:32;7.13;;;2.30;;
2766;SDS011;1391;46.742;11.636;2023-01-30T11:52:05;2.97;;;1.80;;
2766;SDS011;1391;46.742;11.636;2023-01-30T11:54:33;2.97;;;1.90;;
2766;SDS011;1391;46.742;11.636;2023-01-30T11:57:03;5.23;;;2.17;;
2766;SDS011;1391;46.742;11.636;2023-01-30T11:59:38;4.57;;;2.97;;
2766;SDS011;1391;46.742;11.636;2023-01-30T12:02:12;5.50;;;2.20;;
2766;SDS011;1391;46.742;11.636;2023-01-30T12:04:47;6.57;;;1.90;;
2766;SDS011;1391;46.742;11.636;2023-01-30T12:07:19;5.77;;;2.07;;
2766;SDS011;1391;46.742;11.636;2023-01-30T12:09:49;3.53;;;2.40;;
2766;SDS011;1391;46.742;11.636;2023-01-30T12:12:31;4.63;;;2.50;;
2766;SDS011;1391;46.742;11.636;2023-01-30T12:15:03;4.27;;;2.23;;
2766;SDS011;1391;46.742;11.636;2023-01-30T12:17:41;5.63;;;2.40;;
2766;SDS011;1391;46.742;11.636;2023-01-30T12:20:16;4.20;;;2.10;;
2766;SDS011;1391;46.742;11.636;2023-01-30T12:22:56;8.43;;;2.07;;
2766;SDS011;1391;46.742;11.636;2023-01-30T12:25:37;5.03;;;1.87;;
2766;SDS011;1391;46.742;11.636;2023-01-30T12:28:11;3.47;;;2.10;;
2766;SDS011;1391;46.742;11.636;2023-01-30T12:30:46;5.33;;;2.00;;
2766;SDS011;1391;46.742;11.636;2023-01-30T12:33:20;3.37;;;1.80;;
2766;SDS011;1391;46.742;11.636;2023-01-30T12:35:56;16.17;;;7.07;;
2766;SDS011;1391;46.742;11.636;2023-01-30T12:38:40;5.73;;;2.80;;
2766;SDS011;1391;46.742;11.636;2023-01-30T12:41:30;6.53;;;2.83;;
2766;SDS011;1391;46.742;11.636;2023-01-30T12:44:17;3.33;;;2.33;;
2766;SDS011;1391;46.742;11.636;2023-01-30T12:47:01;2.10;;;1.60;;
2766;SDS011;1391;46.742;11.636;2023-01-30T12:49:49;6.07;;;2.10;;
2766;SDS011;1391;46.742;11.636;2023-01-30T12:52:42;8.20;;;1.80;;
2766;SDS011;1391;46.742;11.636;2023-01-30T12:55:28;8.73;;;2.00;;
2766;SDS011;1391;46.742;11.636;2023-01-30T12:58:09;7.10;;;1.60;;
2766;SDS011;1391;46.742;11.636;2023-01-30T13:00:51;3.77;;;1.90;;
2766;SDS011;1391;46.742;11.636;2023-01-30T13:03:36;3.97;;;1.80;;
2766;SDS011;1391;46.742;11.636;2023-01-30T13:06:16;6.20;;;1.80;;
2766;SDS011;1391;46.742;11.636;2023-01-30T13:09:02;10.73;;;3.00;;
2766;SDS011;1391;46.742;11.636;2023-01-30T13:11:48;2.03;;;1.80;;
2766;SDS011;1391;46.742;11.636;2023-01-30T13:14:25;8.30;;;1.67;;
2766;SDS011;1391;46.742;11.636;2023-01-30T13:17:03;5.37;;;1.67;;
2766;SDS011;1391;46.742;11.636;2023-01-30T13:19:58;2.87;;;1.17;;
2766;SDS011;1391;46.742;11.636;2023-01-30T13:22:34;3.23;;;1.70;;
2766;SDS011;1391;46.742;11.636;2023-01-30T13:25:14;4.43;;;1.60;;
2766;SDS011;1391;46.742;11.636;2023-01-30T13:27:53;4.97;;;1.50;;
2766;SDS011;1391;46.742;11.636;2023-01-30T13:30:24;2.50;;;1.40;;
2766;SDS011;1391;46.742;11.636;2023-01-30T13:32:53;1.80;;;1.30;;
2766;SDS011;1391;46.742;11.636;2023-01-30T13:35:27;3.43;;;1.10;;
2766;SDS011;1391;46.742;11.636;2023-01-30T13:37:59;11.13;;;2.13;;
2766;SDS011;1391;46.742;11.636;2023-01-30T13:40:31;5.33;;;2.50;;
2766;SDS011;1391;46.742;11.636;2023-01-30T13:43:05;1.33;;;1.23;;
2766;SDS011;1391;46.742;11.636;2023-01-30T13:45:41;1.30;;;1.10;;
2766;SDS011;1391;46.742;11.636;2023-01-30T13:48:16;2.97;;;1.57;;
2766;SDS011;1391;46.742;11.636;2023-01-30T13:51:25;4.83;;;1.70;;
2766;SDS011;1391;46.742;11.636;2023-01-30T13:54:05;16.77;;;6.80;;
2766;SDS011;1391;46.742;11.636;2023-01-30T13:56:49;1.87;;;1.17;;
2766;SDS011;1391;46.742;11.636;2023-01-30T13:59:24;2.83;;;1.33;;
2766;SDS011;1391;46.742;11.636;2023-01-30T14:02:16;17.97;;;4.13;;
2766;SDS011;1391;46.742;11.636;2023-01-30T14:04:47;10.70;;;1.63;;
2766;SDS011;1391;46.742;11.636;2023-01-30T14:07:22;6.63;;;2.10;;
2766;SDS011;1391;46.742;11.636;2023-01-30T14:10:02;2.77;;;1.67;;
2766;SDS011;1391;46.742;11.636;2023-01-30T14:12:49;4.33;;;1.73;;
2766;SDS011;1391;46.742;11.636;2023-01-30T14:15:23;3.23;;;1.67;;
2766;SDS011;1391;46.742;11.636;2023-01-30T14:18:00;5.30;;;2.53;;
2766;SDS011;1391;46.742;11.636;2023-01-30T14:20:32;1.67;;;1.00;;
2766;SDS011;1391;46.742;11.636;2023-01-30T14:23:03;9.13;;;2.33;;
2766;SDS011;1391;46.742;11.636;2023-01-30T14:37:25;12.83;;;2.73;;
2766;SDS011;1391;46.742;11.636;2023-01-30T14:43:33;2.63;;;1.60;;
2766;SDS011;1391;46.742;11.636;2023-01-30T14:46:03;4.77;;;2.10;;
2766;SDS011;1391;46.742;11.636;2023-01-30T14:48:33;6.83;;;2.13;;
2766;SDS011;1391;46.742;11.636;2023-01-30T14:51:18;23.73;;;4.13;;
2766;SDS011;1391;46.742;11.636;2023-01-30T14:53:50;29.80;;;5.83;;
2766;SDS011;1391;46.742;11.636;2023-01-30T14:56:33;9.37;;;2.97;;
2766;SDS011;1391;46.742;11.636;2023-01-30T14:59:10;7.83;;;2.70;;
2766;SDS011;1391;46.742;11.636;2023-01-30T15:02:02;6.70;;;2.40;;
2766;SDS011;1391;46.742;11.636;2023-01-30T15:04:39;3.30;;;2.10;;
2766;SDS011;1391;46.742;11.636;2023-01-30T15:07:11;7.33;;;2.00;;
2766;SDS011;1391;46.742;11.636;2023-01-30T15:09:45;7.33;;;2.33;;
2766;SDS011;1391;46.742;11.636;2023-01-30T15:15:25;9.10;;;2.00;;
2766;SDS011;1391;46.742;11.636;2023-01-30T15:18:11;6.07;;;2.30;;
2766;SDS011;1391;46.742;11.636;2023-01-30T15:24:07;4.40;;;1.77;;
2766;SDS011;1391;46.742;11.636;2023-01-30T15:27:11;4.23;;;2.20;;
2766;SDS011;1391;46.742;11.636;2023-01-30T15:29:52;5.07;;;2.17;;
2766;SDS011;1391;46.742;11.636;2023-01-30T15:32:30;22.70;;;8.30;;
2766;SDS011;1391;46.742;11.636;2023-01-30T15:34:58;12.97;;;4.30;;
2766;SDS011;1391;46.742;11.636;2023-01-30T15:37:29;11.13;;;2.97;;
2766;SDS011;1391;46.742;11.636;2023-01-30T15:42:56;12.60;;;5.30;;
2766;SDS011;1391;46.742;11.636;2023-01-30T15:45:42;2.73;;;2.00;;
2766;SDS011;1391;46.742;11.636;2023-01-30T15:48:32;4.60;;;1.60;;
2766;SDS011;1391;46.742;11.636;2023-01-30T15:51:13;24.47;;;9.97;;
2766;SDS011;1391;46.742;11.636;2023-01-30T15:53:45;6.70;;;2.13;;
2766;SDS011;1391;46.742;11.636;2023-01-30T15:56:15;3.07;;;1.60;;
2766;SDS011;1391;46.742;11.636;2023-01-30T15:58:47;2.27;;;1.37;;
2766;SDS011;1391;46.742;11.636;2023-01-30T16:01:18;5.63;;;1.73;;
2766;SDS011;1391;46.742;11.636;2023-01-30T16:03:47;11.60;;;2.50;;
2766;SDS011;1391;46.742;11.636;2023-01-30T16:06:21;7.80;;;2.40;;